createdAt,value
2023-04-02T00:02:31.006Z,99371.35
2023-04-02T00:05:34.657Z,99370.97
2023-04-02T00:08:10.135Z,99373.34
2023-04-02T00:10:41.045Z,99378.77
2023-04-02T00:13:33.080Z,99378.63
2023-04-02T00:16:06.687Z,99381.69
2023-04-02T00:18:45.344Z,99382.36
2023-04-02T00:21:22.511Z,99385.09
2023-04-02T00:23:54.811Z,99382.52
2023-04-02T00:26:31.870Z,99383.55
2023-04-02T00:29:04.918Z,99386.09
2023-04-02T00:31:39.394Z,99391.38
2023-04-02T00:34:16.390Z,99392.05
2023-04-02T00:36:51.491Z,99393.94
2023-04-02T00:39:23.824Z,99396.83
2023-04-02T00:42:05.269Z,99394.61
2023-04-02T00:44:43.093Z,99400.06
2023-04-02T00:47:20.389Z,99397.20
2023-04-02T00:49:57.097Z,99398.77
2023-04-02T00:52:30.298Z,99402.55
2023-04-02T00:55:08.025Z,99405.32
2023-04-02T00:57:43.004Z,99406.35
2023-04-02T01:00:29.349Z,99402.11
2023-04-02T01:03:34.487Z,99407.91
2023-04-02T01:06:11.711Z,99405.77
2023-04-02T01:08:54.185Z,99413.11
2023-04-02T01:11:39.378Z,99416.01
2023-04-02T01:14:19.998Z,99414.33
2023-04-02T01:16:56.356Z,99413.34
2023-04-02T01:20:15.892Z,99416.25
2023-04-02T01:22:56.210Z,99419.50
2023-04-02T01:25:31.722Z,99423.59
2023-04-02T01:28:08.576Z,99424.98
2023-04-02T01:30:39.953Z,99428.39
2023-04-02T01:33:10.934Z,99431.63
2023-04-02T01:35:46.166Z,99429.79
2023-04-02T01:38:25.927Z,99431.15
2023-04-02T01:41:04.992Z,99436.63
2023-04-02T01:43:42.173Z,99436.34
2023-04-02T01:49:14.088Z,99440.98
2023-04-02T01:51:46.694Z,99451.05
2023-04-02T01:54:20.715Z,99451.74
2023-04-02T01:56:52.912Z,99457.01
2023-04-02T01:59:24.711Z,99456.00
2023-04-02T02:02:05.306Z,99458.23
2023-04-02T02:04:37.699Z,99454.83
2023-04-02T02:07:17.552Z,99460.10
2023-04-02T02:09:52.104Z,99461.63
2023-04-02T02:12:23.512Z,99465.20
2023-04-02T02:14:54.499Z,99471.66
2023-04-02T02:17:34.571Z,99476.43
2023-04-02T02:20:11.129Z,99479.82
2023-04-02T02:22:45.187Z,99483.23
2023-04-02T02:25:19.471Z,99481.55
2023-04-02T02:28:07.488Z,99483.94
2023-04-02T02:30:44.251Z,99482.91
2023-04-02T02:33:22.099Z,99483.44
2023-04-02T02:35:57.753Z,99489.23
2023-04-02T02:38:54.288Z,99492.13
2023-04-02T02:41:37.068Z,99492.98
2023-04-02T02:44:15.514Z,99494.88
2023-04-02T02:46:51.894Z,99498.30
2023-04-02T02:49:28.520Z,99498.17
2023-04-02T02:52:07.824Z,99498.52
2023-04-02T02:54:48.984Z,99503.48
2023-04-02T02:57:23.619Z,99509.09
2023-04-02T02:59:56.252Z,99510.98
2023-04-02T03:02:29.256Z,99516.92
2023-04-02T03:05:02.913Z,99519.29
2023-04-02T03:07:37.342Z,99518.95
2023-04-02T03:10:16.248Z,99519.29
2023-04-02T03:12:52.861Z,99523.91
2023-04-02T03:15:34.427Z,99525.63
2023-04-02T03:18:13.067Z,99526.83
2023-04-02T03:20:49.790Z,99532.60
2023-04-02T03:23:24.772Z,99534.96
2023-04-02T03:26:02.810Z,99537.17
2023-04-02T03:28:37.492Z,99541.58
2023-04-02T03:31:16.064Z,99542.09
2023-04-02T03:33:52.230Z,99548.70
2023-04-02T03:36:29.720Z,99550.23
2023-04-02T03:39:10.164Z,99556.67
2023-04-02T03:41:46.229Z,99563.48
2023-04-02T03:44:27.508Z,99570.11
2023-04-02T03:47:02.603Z,99574.20
2023-04-02T03:49:39.662Z,99577.43
2023-04-02T03:52:14.560Z,99586.10
2023-04-02T03:54:53.916Z,99585.59
2023-04-02T03:57:30.815Z,99588.98
2023-04-02T04:00:07.059Z,99589.52
2023-04-02T04:02:48.976Z,99587.67
2023-04-02T04:05:27.445Z,99588.54
2023-04-02T04:08:04.637Z,99591.12
2023-04-02T04:10:36.186Z,99597.74
2023-04-02T04:13:12.949Z,99599.80
2023-04-02T04:15:50.176Z,99609.48
2023-04-02T04:18:38.059Z,99610.00
2023-04-02T04:21:29.919Z,99615.27
2023-04-02T04:24:08.128Z,99618.53
2023-04-02T04:26:41.100Z,99622.77
2023-04-02T04:29:26.925Z,99629.25
2023-04-02T04:32:11.061Z,99627.38
2023-04-02T04:34:51.700Z,99627.04
2023-04-02T04:37:29.239Z,99633.16
2023-04-02T04:40:05.629Z,99633.52
2023-04-02T04:42:41.247Z,99634.19
2023-04-02T04:45:27.145Z,99635.39
2023-04-02T04:48:02.868Z,99633.20
2023-04-02T04:50:39.794Z,99647.30
2023-04-02T04:53:17.374Z,99659.86
2023-04-02T04:55:53.444Z,99665.14
2023-04-02T04:58:28.979Z,99667.00
2023-04-02T05:01:01.839Z,99668.70
2023-04-02T05:03:39.183Z,99674.30
2023-04-02T05:06:25.329Z,99680.26
2023-04-02T05:09:02.425Z,99679.58
2023-04-02T05:11:38.260Z,99680.62
2023-04-02T05:14:17.228Z,99684.88
2023-04-02T05:16:55.334Z,99690.66
2023-04-02T05:19:35.774Z,99693.05
2023-04-02T05:22:21.777Z,99692.38
2023-04-02T05:25:01.232Z,99701.39
2023-04-02T05:27:39.040Z,99698.33
2023-04-02T05:30:34.354Z,99704.27
2023-04-02T05:33:15.192Z,99707.35
2023-04-02T05:35:50.489Z,99712.46
2023-04-02T05:38:24.824Z,99718.06
2023-04-02T05:41:02.350Z,99723.50
2023-04-02T05:43:38.249Z,99726.40
2023-04-02T05:46:18.546Z,99735.06
2023-04-02T05:48:56.532Z,99736.23
2023-04-02T05:51:36.735Z,99736.76
2023-04-02T05:54:23.520Z,99736.75
2023-04-02T05:57:06.146Z,99734.38
2023-04-02T05:59:43.114Z,99737.95
2023-04-02T06:02:23.886Z,99742.70
2023-04-02T06:04:58.862Z,99747.46
2023-04-02T06:07:41.975Z,99750.17
2023-04-02T06:10:18.145Z,99750.84
2023-04-02T06:12:54.328Z,99757.13
2023-04-02T06:15:26.071Z,99760.69
2023-04-02T06:18:07.707Z,99771.05
2023-04-02T06:20:39.240Z,99775.79
2023-04-02T06:23:17.552Z,99782.41
2023-04-02T06:25:54.506Z,99788.34
2023-04-02T06:28:31.816Z,99790.05
2023-04-02T06:31:09.116Z,99791.23
2023-04-02T06:33:41.042Z,99798.02
2023-04-02T06:36:13.449Z,99803.45
2023-04-02T06:38:46.416Z,99805.15
2023-04-02T06:41:21.485Z,99806.67
2023-04-02T06:44:17.678Z,99809.22
2023-04-02T06:47:00.049Z,99812.95
2023-04-02T06:49:39.760Z,99816.50
2023-04-02T06:52:20.440Z,99820.41
2023-04-02T06:54:52.113Z,99824.66
2023-04-02T06:57:22.956Z,99829.07
2023-04-02T06:59:55.590Z,99831.27
2023-04-02T07:02:33.847Z,99833.98
2023-04-02T07:05:09.256Z,99840.42
2023-04-02T07:07:45.655Z,99838.92
2023-04-02T07:10:32.941Z,99843.15
2023-04-02T07:13:29.172Z,99841.96
2023-04-02T07:16:05.019Z,99846.39
2023-04-02T07:18:36.968Z,99846.89
2023-04-02T07:21:10.132Z,99847.23
2023-04-02T07:23:41.991Z,99854.88
2023-04-02T07:26:17.736Z,99855.88
2023-04-02T07:28:49.147Z,99859.11
2023-04-02T07:31:23.648Z,99866.73
2023-04-02T07:33:55.862Z,99871.83
2023-04-02T07:36:28.155Z,99874.54
2023-04-02T07:38:59.165Z,99876.91
2023-04-02T07:41:32.669Z,99880.63
2023-04-02T07:44:05.054Z,99880.59
2023-04-02T07:46:35.954Z,99889.08
2023-04-02T07:49:07.719Z,99891.79
2023-04-02T07:51:38.724Z,99897.55
2023-04-02T07:54:10.318Z,99895.17
2023-04-02T07:56:41.346Z,99896.20
2023-04-02T07:59:12.455Z,99895.17
2023-04-02T08:01:43.454Z,99898.39
2023-04-02T08:04:20.055Z,99904.16
2023-04-02T08:06:52.997Z,99908.05
2023-04-02T08:09:23.868Z,99913.80
2023-04-02T08:11:54.772Z,99917.87
2023-04-02T08:14:25.559Z,99920.91
2023-04-02T08:16:57.527Z,99926.86
2023-04-02T08:19:28.629Z,99931.27
2023-04-02T08:21:59.512Z,99934.15
2023-04-02T08:24:30.343Z,99937.72
2023-04-02T08:27:02.460Z,99944.67
2023-04-02T08:29:33.677Z,99939.08
2023-04-02T08:32:04.785Z,99935.17
2023-04-02T08:34:35.574Z,99930.94
2023-04-02T08:37:06.635Z,99936.88
2023-04-02T08:39:37.415Z,99954.34
2023-04-02T08:42:19.416Z,99969.09
2023-04-02T08:45:21.271Z,99975.70
2023-04-02T08:48:00.078Z,99982.33
2023-04-02T08:50:35.553Z,99983.67
2023-04-02T08:53:06.617Z,99984.70
2023-04-02T08:55:43.392Z,99988.42
2023-04-02T08:58:28.499Z,99987.58
2023-04-02T09:01:02.925Z,99990.81
2023-04-02T09:03:40.455Z,99987.93
2023-04-02T09:06:16.445Z,99994.07
2023-04-02T09:08:51.769Z,99999.50
2023-04-02T09:11:27.343Z,100001.04
2023-04-02T09:14:00.436Z,100000.89
2023-04-02T09:16:48.720Z,100006.17
2023-04-02T09:19:23.848Z,100010.09
2023-04-02T09:22:09.662Z,100008.05
2023-04-02T09:24:40.654Z,100009.76
2023-04-02T09:27:21.480Z,100008.58
2023-04-02T09:29:56.383Z,100010.80
2023-04-02T09:32:39.385Z,100012.32
2023-04-02T09:35:25.567Z,100016.05
2023-04-02T09:38:21.056Z,100013.02
2023-04-02T09:40:59.727Z,100015.55
2023-04-02T09:43:32.574Z,100015.91
2023-04-02T09:46:05.843Z,100017.77
2023-04-02T09:48:43.532Z,100020.67
2023-04-02T09:51:21.790Z,100019.48
2023-04-02T09:54:07.387Z,100020.52
2023-04-02T09:56:39.960Z,100026.81
2023-04-02T09:59:18.501Z,100033.28
2023-04-02T10:01:58.388Z,100032.27
2023-04-02T10:04:48.644Z,100034.30
2023-04-02T10:07:38.303Z,100040.23
2023-04-02T10:10:25.239Z,100047.36
2023-04-02T10:13:07.895Z,100049.55
2023-04-02T10:15:45.783Z,100054.64
2023-04-02T10:18:22.746Z,100062.14
2023-04-02T10:20:55.982Z,100067.21
2023-04-02T10:23:33.196Z,100068.41
2023-04-02T10:26:20.623Z,100068.75
2023-04-02T10:29:14.496Z,100077.90
2023-04-02T10:32:04.643Z,100078.92
2023-04-02T10:34:44.498Z,100079.97
2023-04-02T10:37:52.247Z,100085.05
2023-04-02T10:40:29.649Z,100088.28
2023-04-02T10:43:23.331Z,100087.25
2023-04-02T10:46:01.497Z,100093.70
2023-04-02T10:48:41.441Z,100096.77
2023-04-02T10:51:26.454Z,100101.19
2023-04-02T10:54:04.775Z,100105.93
2023-04-02T10:56:44.421Z,100112.20
2023-04-02T10:59:21.967Z,100115.94
2023-04-02T11:01:57.040Z,100120.17
2023-04-02T11:04:31.696Z,100119.81
2023-04-02T11:07:18.132Z,100128.29
2023-04-02T11:09:56.463Z,100134.89
2023-04-02T11:12:34.551Z,100143.70
2023-04-02T11:15:19.354Z,100141.80
2023-04-02T11:17:51.016Z,100143.48
2023-04-02T11:20:52.972Z,100145.47
2023-04-02T11:24:30.588Z,100146.80
2023-04-02T11:27:19.932Z,100145.21
2023-04-02T11:30:14.453Z,100155.04
2023-04-02T11:32:49.676Z,100164.69
2023-04-02T11:35:40.928Z,100175.05
2023-04-02T11:39:04.607Z,100182.52
2023-04-02T11:42:25.080Z,100188.49
2023-04-02T11:44:59.645Z,100188.90
2023-04-02T11:47:35.149Z,100184.86
2023-04-02T11:50:29.774Z,100182.52
2023-04-02T11:53:06.791Z,100184.07
2023-04-02T11:55:46.001Z,100193.59
2023-04-02T11:59:04.169Z,100196.80
2023-04-02T12:02:08.847Z,100203.77
2023-04-02T12:05:14.911Z,100207.35
2023-04-02T12:08:17.999Z,100205.51
2023-04-02T12:11:00.636Z,100210.94
2023-04-02T12:13:54.626Z,100211.42
2023-04-02T12:16:31.717Z,100214.80
2023-04-02T12:19:47.953Z,100223.97
2023-04-02T12:23:02.404Z,100224.97
2023-04-02T12:25:40.562Z,100224.77
2023-04-02T12:28:56.289Z,100225.56
2023-04-02T12:31:30.414Z,100228.96
2023-04-02T12:34:03.902Z,100235.08
2023-04-02T12:36:36.325Z,100231.68
2023-04-02T12:39:19.701Z,100234.91
2023-04-02T12:41:50.740Z,100233.04
2023-04-02T12:44:23.433Z,100238.48
2023-04-02T12:46:54.740Z,100235.44
2023-04-02T12:49:37.769Z,100234.77
2023-04-02T12:52:11.870Z,100241.41
2023-04-02T12:54:50.847Z,100242.96
2023-04-02T12:57:41.256Z,100248.75
2023-04-02T13:00:37.895Z,100258.09
2023-04-02T13:03:34.980Z,100266.08
2023-04-02T13:06:19.419Z,100273.41
2023-04-02T13:08:52.993Z,100274.96
2023-04-02T13:11:38.478Z,100272.61
2023-04-02T13:14:22.124Z,100275.31
2023-04-02T13:16:53.087Z,100277.21
2023-04-02T13:19:34.114Z,100277.75
2023-04-02T13:22:28.669Z,100282.86
2023-04-02T13:25:00.143Z,100285.98
2023-04-02T13:27:30.957Z,100291.76
2023-04-02T13:30:21.850Z,100297.20
2023-04-02T13:32:59.601Z,100295.67
2023-04-02T13:35:33.445Z,100298.88
2023-04-02T13:38:05.926Z,100296.84
2023-04-02T13:40:38.409Z,100299.20
2023-04-02T13:43:18.723Z,100301.58
2023-04-02T13:45:54.248Z,100304.11
2023-04-02T13:48:29.109Z,100303.94
2023-04-02T13:50:59.983Z,100306.42
2023-04-02T13:53:34.395Z,100309.45
2023-04-02T13:56:06.559Z,100309.74
2023-04-02T13:58:37.401Z,100314.48
2023-04-02T14:01:11.378Z,100318.02
2023-04-02T14:03:45.498Z,100314.61
2023-04-02T14:06:28.189Z,100314.08
2023-04-02T14:09:07.062Z,100318.83
2023-04-02T14:11:52.624Z,100326.77
2023-04-02T14:14:27.138Z,100328.13
2023-04-02T14:17:10.719Z,100327.79
2023-04-02T14:20:04.990Z,100328.96
2023-04-02T14:22:51.747Z,100335.04
2023-04-02T14:25:33.289Z,100344.33
2023-04-02T14:28:16.756Z,100349.58
2023-04-02T14:30:57.906Z,100356.16
2023-04-02T14:37:05.259Z,100359.66
2023-04-02T14:40:04.429Z,100364.71
2023-04-02T14:42:46.034Z,100365.52
2023-04-02T14:45:24.876Z,100367.50
2023-04-02T14:48:02.165Z,100372.02
2023-04-02T14:50:39.046Z,100376.84
2023-04-02T14:53:18.397Z,100379.79
2023-04-02T14:56:19.761Z,100382.73
2023-04-02T14:59:04.808Z,100383.14
2023-04-02T15:02:24.689Z,100391.23
2023-04-02T15:05:01.625Z,100402.84
2023-04-02T15:07:45.884Z,100406.34
2023-04-02T15:10:27.431Z,100412.08
2023-04-02T15:13:01.453Z,100415.79
2023-04-02T15:15:42.444Z,100417.95
2023-04-02T15:18:16.813Z,100418.59
2023-04-02T15:21:02.314Z,100426.48
2023-04-02T15:24:23.251Z,100432.69
2023-04-02T15:27:05.479Z,100442.74
2023-04-02T15:29:58.978Z,100443.98
2023-04-02T15:32:41.537Z,100448.11
2023-04-02T15:35:44.151Z,100449.09
2023-04-02T15:38:24.017Z,100454.45
2023-04-02T15:40:58.841Z,100454.92
2023-04-02T15:43:35.661Z,100461.67
2023-04-02T15:46:23.498Z,100461.27
2023-04-02T15:53:19.011Z,100465.69
2023-04-02T15:55:56.003Z,100470.02
2023-04-02T15:58:47.476Z,100475.11
2023-04-02T16:01:31.321Z,100479.84
2023-04-02T16:04:37.072Z,100485.77
2023-04-02T16:07:25.266Z,100491.30
2023-04-02T16:10:12.209Z,100497.88
2023-04-02T16:12:44.657Z,100501.40
2023-04-02T16:15:26.607Z,100505.94
2023-04-02T16:18:01.750Z,100512.69
2023-04-02T16:20:41.738Z,100515.88
2023-04-02T16:23:56.923Z,100512.97
2023-04-02T16:27:26.753Z,100520.28
2023-04-02T16:30:33.085Z,100523.02
2023-04-02T16:33:27.323Z,100525.82
2023-04-02T16:36:44.653Z,100534.97
2023-04-02T16:39:30.632Z,100536.61
2023-04-02T16:42:16.194Z,100540.13
2023-04-02T16:45:06.410Z,100539.58
2023-04-02T16:48:31.199Z,100543.73
2023-04-02T17:13:14.576Z,100572.58
2023-04-02T17:15:51.471Z,100577.69
2023-04-02T17:18:26.686Z,100578.02
2023-04-02T17:21:11.656Z,100575.23
2023-04-02T17:23:55.710Z,100581.65
2023-04-02T17:26:37.164Z,100590.59
2023-04-02T17:29:25.979Z,100590.70
2023-04-02T17:32:08.967Z,100590.67
2023-04-02T17:34:41.803Z,100591.50
2023-04-02T17:37:31.614Z,100598.95
2023-04-02T17:40:25.511Z,100602.49
2023-04-02T17:43:04.587Z,100606.57
2023-04-02T17:45:43.974Z,100613.18
2023-04-02T17:48:27.489Z,100619.61
2023-04-02T17:51:09.889Z,100624.54
2023-04-02T17:54:04.129Z,100629.08
2023-04-02T18:01:02.153Z,100636.05
2023-04-02T18:04:31.887Z,100634.91
2023-04-02T18:07:18.016Z,100636.13
2023-04-02T18:09:53.857Z,100638.53
2023-04-02T18:12:42.499Z,100639.42
2023-04-02T18:15:38.021Z,100638.13
2023-04-02T18:18:19.967Z,100638.52
2023-04-02T18:21:02.420Z,100633.96
2023-04-02T18:23:49.351Z,100643.46
2023-04-02T18:26:31.622Z,100650.77
2023-04-02T18:29:19.604Z,100652.11
2023-04-02T18:31:58.834Z,100655.38
2023-04-02T18:34:50.600Z,100658.80
2023-04-02T18:37:29.819Z,100660.72
2023-04-02T18:40:22.965Z,100662.48
2023-04-02T18:43:13.628Z,100662.87
2023-04-02T18:45:56.301Z,100671.23
2023-04-02T18:48:44.198Z,100674.34
2023-04-02T18:51:23.175Z,100679.16
2023-04-02T18:54:04.289Z,100679.67
2023-04-02T18:56:38.183Z,100685.02
2023-04-02T18:59:34.445Z,100686.59
2023-04-02T19:02:24.190Z,100690.02
2023-04-02T19:05:03.100Z,100692.28
2023-04-02T19:07:39.566Z,100691.98
2023-04-02T19:10:31.227Z,100693.05
2023-04-02T19:13:02.717Z,100696.64
2023-04-02T19:15:45.389Z,100702.42
2023-04-02T19:18:26.859Z,100705.15
2023-04-02T19:21:02.475Z,100706.21
2023-04-02T19:24:04.637Z,100706.27
2023-04-02T19:26:43.101Z,100708.51
2023-04-02T19:29:34.418Z,100710.89
2023-04-02T19:32:12.999Z,100707.00
2023-04-02T19:34:52.836Z,100707.90
2023-04-02T19:37:47.505Z,100703.64
2023-04-02T19:41:00.435Z,100706.71
2023-04-02T19:43:54.042Z,100704.11
2023-04-02T19:46:32.687Z,100706.98
2023-04-02T19:49:13.290Z,100709.66
2023-04-02T19:51:47.490Z,100712.36
2023-04-02T19:54:18.838Z,100713.52
2023-04-02T19:56:52.060Z,100711.10
2023-04-02T19:59:23.690Z,100715.30
2023-04-02T20:02:10.213Z,100717.82
2023-04-02T20:04:42.510Z,100718.62
2023-04-02T20:07:13.365Z,100721.13
2023-04-02T20:09:45.176Z,100721.77
2023-04-02T20:12:16.372Z,100726.65
2023-04-02T20:14:47.494Z,100731.20
2023-04-02T20:17:18.693Z,100730.13
2023-04-02T20:19:50.400Z,100732.46
2023-04-02T20:22:21.992Z,100734.98
2023-04-02T20:24:55.012Z,100738.98
2023-04-02T20:27:26.417Z,100738.23
2023-04-02T20:29:59.784Z,100738.36
2023-04-02T20:32:35.189Z,100739.85
2023-04-02T20:35:09.143Z,100745.58
2023-04-02T20:37:41.973Z,100748.61
2023-04-02T20:40:13.560Z,100753.86
2023-04-02T20:42:44.637Z,100754.19
2023-04-02T20:45:16.172Z,100753.84
2023-04-02T20:47:47.716Z,100754.86
2023-04-02T20:50:19.427Z,100758.05
2023-04-02T20:52:51.781Z,100762.07
2023-04-02T20:55:22.785Z,100759.98
2023-04-02T20:57:53.706Z,100761.30
2023-04-02T21:00:24.807Z,100766.34
2023-04-02T21:02:56.108Z,100770.02
2023-04-02T21:05:27.777Z,100770.67
2023-04-02T21:07:59.674Z,100775.02
2023-04-02T21:10:30.522Z,100775.45
2023-04-02T21:13:01.533Z,100781.19
2023-04-02T21:15:35.069Z,100783.22
2023-04-02T21:18:07.059Z,100783.00
2023-04-02T21:20:38.294Z,100784.98
2023-04-02T21:23:09.069Z,100782.05
2023-04-02T21:25:39.801Z,100787.93
2023-04-02T21:28:10.731Z,100787.56
2023-04-02T21:30:41.461Z,100787.83
2023-04-02T21:33:12.277Z,100785.95
2023-04-02T21:35:46.186Z,100793.67
2023-04-02T21:38:16.946Z,100793.15
2023-04-02T21:40:47.765Z,100791.23
2023-04-02T21:43:18.546Z,100796.45
2023-04-02T21:45:49.459Z,100795.90
2023-04-02T21:48:20.381Z,100799.92
2023-04-02T21:50:51.369Z,100803.58
2023-04-02T21:53:22.302Z,100802.33
2023-04-02T21:56:01.162Z,100805.14
2023-04-02T21:58:31.980Z,100806.09
2023-04-02T22:01:05.445Z,100808.05
2023-04-02T22:03:36.843Z,100819.13
2023-04-02T22:06:10.647Z,100821.27
2023-04-02T22:08:43.834Z,100823.20
2023-04-02T22:11:17.040Z,100832.50
2023-04-02T22:13:49.555Z,100828.88
2023-04-02T22:16:22.406Z,100836.92
2023-04-02T22:18:55.690Z,100840.04
2023-04-02T22:21:27.262Z,100847.79
2023-04-02T22:23:59.961Z,100846.05
2023-04-02T22:26:32.473Z,100845.99
2023-04-02T22:29:04.044Z,100851.36
2023-04-02T22:31:35.599Z,100843.33
2023-04-02T22:34:07.437Z,100854.75
2023-04-02T22:36:38.378Z,100854.16
2023-04-02T22:39:12.379Z,100859.11
2023-04-02T22:41:43.496Z,100854.62
2023-04-02T22:44:17.693Z,100862.32
2023-04-02T22:46:48.632Z,100865.16
2023-04-02T22:49:19.731Z,100865.77
2023-04-02T22:51:50.736Z,100871.11
2023-04-02T22:54:21.704Z,100871.23
2023-04-02T22:56:52.564Z,100871.52
2023-04-02T22:59:23.625Z,100875.48
2023-04-02T23:01:54.523Z,100873.73
2023-04-02T23:04:25.429Z,100873.52
2023-04-02T23:06:56.268Z,100873.91
2023-04-02T23:09:27.003Z,100875.68
2023-04-02T23:11:57.864Z,100875.42
2023-04-02T23:14:28.803Z,100873.48
2023-04-02T23:16:59.682Z,100878.30
2023-04-02T23:19:30.571Z,100877.73
2023-04-02T23:22:01.521Z,100876.95
2023-04-02T23:24:32.396Z,100886.61
2023-04-02T23:27:03.263Z,100886.16
2023-04-02T23:29:34.146Z,100891.95
2023-04-02T23:32:05.132Z,100886.25
2023-04-02T23:34:36.799Z,100894.94
2023-04-02T23:37:07.781Z,100892.28
2023-04-02T23:39:39.575Z,100890.81
2023-04-02T23:42:11.997Z,100893.56
2023-04-02T23:44:42.812Z,100892.75
2023-04-02T23:47:13.754Z,100895.48
2023-04-02T23:49:47.961Z,100894.98
2023-04-02T23:52:18.698Z,100899.97
2023-04-02T23:54:49.438Z,100896.02
2023-04-02T23:57:20.377Z,100902.30
2023-04-02T23:59:51.193Z,100905.20
